createdAt,value
2022-07-29T00:01:20.740Z,56.97
2022-07-29T00:03:50.629Z,57.02
2022-07-29T00:06:17.772Z,56.91
2022-07-29T00:08:44.722Z,57.19
2022-07-29T00:11:13.906Z,57.54
2022-07-29T00:13:40.844Z,56.70
2022-07-29T00:16:10.494Z,56.82
2022-07-29T00:18:37.443Z,56.89
2022-07-29T00:21:04.521Z,57.10
2022-07-29T00:23:35.017Z,57.87
2022-07-29T00:26:03.866Z,58.46
2022-07-29T00:28:30.739Z,57.00
2022-07-29T00:30:57.662Z,57.99
2022-07-29T00:33:24.751Z,57.55
2022-07-29T00:35:51.638Z,57.71
2022-07-29T00:38:21.286Z,56.69
2022-07-29T00:40:48.886Z,56.95
2022-07-29T00:43:15.941Z,57.36
2022-07-29T00:45:43.345Z,57.63
2022-07-29T00:48:10.572Z,58.02
2022-07-29T00:50:38.588Z,57.05
2022-07-29T00:53:07.763Z,57.02
2022-07-29T00:55:37.599Z,56.69
2022-07-29T00:58:04.754Z,57.40
2022-07-29T01:00:37.881Z,57.58
2022-07-29T01:03:04.924Z,57.58
2022-07-29T01:05:49.940Z,58.13
2022-07-29T01:08:19.981Z,57.88
2022-07-29T01:10:48.497Z,57.19
2022-07-29T01:13:16.903Z,58.01
2022-07-29T01:16:00.517Z,57.86
2022-07-29T01:18:39.204Z,57.70
2022-07-29T01:21:48.377Z,57.74
2022-07-29T01:24:40.677Z,57.55
2022-07-29T01:27:48.201Z,58.26
2022-07-29T01:30:15.797Z,57.75
2022-07-29T01:32:48.964Z,58.27
2022-07-29T01:35:27.159Z,58.20
2022-07-29T01:38:19.601Z,57.82
2022-07-29T01:40:55.279Z,57.83
2022-07-29T01:43:32.176Z,58.77
2022-07-29T01:46:06.756Z,57.94
2022-07-29T01:48:43.173Z,58.63
2022-07-29T01:51:33.604Z,58.01
2022-07-29T01:54:14.830Z,58.34
2022-07-29T01:56:46.612Z,59.06
2022-07-29T01:59:13.733Z,58.84
2022-07-29T02:01:43.388Z,58.86
2022-07-29T02:04:28.854Z,58.17
2022-07-29T02:07:02.325Z,59.17
2022-07-29T02:09:30.778Z,59.09
2022-07-29T02:12:00.489Z,59.79
2022-07-29T02:14:34.514Z,59.32
2022-07-29T02:17:04.861Z,60.56
2022-07-29T02:19:34.067Z,59.80
2022-07-29T02:22:02.617Z,60.28
2022-07-29T02:24:30.890Z,59.88
2022-07-29T02:27:00.390Z,60.11
2022-07-29T02:29:32.156Z,60.14
2022-07-29T02:32:00.625Z,60.18
2022-07-29T02:34:29.319Z,59.57
2022-07-29T02:36:59.324Z,59.37
2022-07-29T02:39:28.471Z,59.33
2022-07-29T02:42:11.191Z,58.87
2022-07-29T02:44:40.638Z,59.41
2022-07-29T02:47:42.247Z,59.54
2022-07-29T02:50:27.708Z,59.20
2022-07-29T02:53:10.432Z,59.73
2022-07-29T02:56:09.397Z,60.32
2022-07-29T02:58:46.666Z,59.76
2022-07-29T03:01:22.097Z,60.45
2022-07-29T03:03:56.501Z,60.01
2022-07-29T03:06:38.441Z,60.33
2022-07-29T03:09:12.881Z,60.53
2022-07-29T03:11:49.972Z,60.72
2022-07-29T03:14:21.824Z,60.32
2022-07-29T03:16:53.699Z,60.88
2022-07-29T03:19:21.402Z,61.07
2022-07-29T03:21:48.718Z,60.66
2022-07-29T03:24:33.165Z,61.21
2022-07-29T03:27:05.140Z,60.74
2022-07-29T03:29:34.959Z,61.54
2022-07-29T03:32:07.181Z,61.46
2022-07-29T03:34:36.741Z,61.31
2022-07-29T03:37:09.744Z,61.32
2022-07-29T03:39:41.923Z,61.23
2022-07-29T03:42:13.347Z,61.78
2022-07-29T03:44:44.266Z,61.46
2022-07-29T03:47:15.053Z,62.76
2022-07-29T03:49:43.144Z,62.68
2022-07-29T03:52:10.519Z,62.80
2022-07-29T03:54:37.632Z,62.99
2022-07-29T03:57:08.405Z,62.16
2022-07-29T03:59:35.524Z,61.98
2022-07-29T04:02:04.828Z,61.84
2022-07-29T04:04:35.550Z,61.59
2022-07-29T04:07:02.511Z,62.55
2022-07-29T04:09:29.423Z,61.62
2022-07-29T04:12:03.855Z,62.11
2022-07-29T04:14:33.854Z,61.73
2022-07-29T04:17:02.314Z,62.03
2022-07-29T04:19:29.264Z,61.49
2022-07-29T04:21:59.874Z,62.17
2022-07-29T04:24:29.763Z,61.81
2022-07-29T04:26:58.868Z,61.75
2022-07-29T04:29:25.748Z,62.72
2022-07-29T04:31:54.736Z,63.00
2022-07-29T04:34:21.622Z,62.73
2022-07-29T04:36:48.546Z,62.64
2022-07-29T04:39:22.689Z,62.02
2022-07-29T04:41:56.370Z,62.16
2022-07-29T04:44:28.511Z,62.85
2022-07-29T04:46:58.121Z,61.63
2022-07-29T04:49:25.469Z,61.06
2022-07-29T04:51:52.513Z,60.96
2022-07-29T04:54:19.756Z,60.62
2022-07-29T04:56:47.444Z,60.67
2022-07-29T04:59:14.831Z,60.25
2022-07-29T05:01:43.951Z,60.58
2022-07-29T05:04:10.833Z,60.62
2022-07-29T05:06:40.865Z,60.90
2022-07-29T05:13:13.447Z,60.95
2022-07-29T05:15:42.899Z,60.97
2022-07-29T05:18:12.276Z,61.23
2022-07-29T05:20:42.318Z,61.78
2022-07-29T05:23:09.819Z,61.03
2022-07-29T05:25:40.787Z,60.69
2022-07-29T05:28:14.957Z,60.44
2022-07-29T05:30:42.159Z,60.00
2022-07-29T05:33:09.081Z,59.73
2022-07-29T05:36:00.322Z,59.56
2022-07-29T05:38:30.322Z,59.32
2022-07-29T05:41:01.147Z,59.41
2022-07-29T05:43:29.476Z,58.85
2022-07-29T05:45:57.316Z,58.46
2022-07-29T05:48:27.518Z,58.61
2022-07-29T05:50:56.927Z,58.06
2022-07-29T05:53:24.269Z,58.21
2022-07-29T05:55:51.547Z,58.38
2022-07-29T05:58:22.997Z,58.25
2022-07-29T06:00:50.029Z,58.04
2022-07-29T06:03:21.418Z,57.63
2022-07-29T06:05:51.287Z,57.40
2022-07-29T06:08:20.403Z,57.86
2022-07-29T06:10:49.783Z,56.98
2022-07-29T06:13:18.829Z,57.47
2022-07-29T06:15:45.907Z,57.23
2022-07-29T06:18:14.292Z,57.13
2022-07-29T06:20:41.199Z,57.05
2022-07-29T06:23:11.000Z,56.99
2022-07-29T06:25:41.726Z,56.12
2022-07-29T06:28:08.749Z,56.54
2022-07-29T06:30:36.022Z,57.33
2022-07-29T06:33:03.328Z,56.51
2022-07-29T06:35:41.008Z,56.33
2022-07-29T06:38:31.260Z,56.33
2022-07-29T06:41:06.806Z,56.18
2022-07-29T06:43:52.480Z,55.42
2022-07-29T06:46:24.496Z,54.70
2022-07-29T06:48:53.107Z,55.11
2022-07-29T06:51:24.008Z,54.87
2022-07-29T06:53:59.823Z,54.83
2022-07-29T06:56:39.226Z,55.39
2022-07-29T06:59:11.782Z,54.66
2022-07-29T07:01:41.430Z,54.86
2022-07-29T07:04:11.825Z,54.22
2022-07-29T07:06:39.607Z,53.76
2022-07-29T07:09:09.085Z,54.27
2022-07-29T07:11:38.517Z,54.14
2022-07-29T07:14:08.380Z,54.37
2022-07-29T07:16:37.492Z,54.18
2022-07-29T07:19:04.372Z,54.16
2022-07-29T07:21:34.483Z,53.72
2022-07-29T07:24:02.973Z,53.42
2022-07-29T07:26:33.219Z,53.48
2022-07-29T07:29:02.634Z,52.01
2022-07-29T07:31:32.169Z,51.70
2022-07-29T07:33:59.209Z,51.83
2022-07-29T07:36:26.172Z,51.50
2022-07-29T07:38:53.075Z,51.59
2022-07-29T07:41:20.080Z,51.21
2022-07-29T07:43:46.948Z,51.95
2022-07-29T07:46:14.044Z,51.57
2022-07-29T07:48:43.437Z,51.08
2022-07-29T07:51:10.452Z,51.89
2022-07-29T07:53:37.308Z,51.65
2022-07-29T07:56:10.928Z,50.80
2022-07-29T07:58:41.780Z,50.12
2022-07-29T08:01:10.383Z,49.13
2022-07-29T08:03:39.980Z,49.10
2022-07-29T08:06:07.574Z,48.53
2022-07-29T08:08:37.583Z,48.81
2022-07-29T08:11:09.113Z,48.11
2022-07-29T08:13:37.868Z,47.80
2022-07-29T08:16:15.930Z,47.69
2022-07-29T08:18:46.308Z,47.13
2022-07-29T08:21:17.301Z,45.95
2022-07-29T08:23:59.618Z,46.70
2022-07-29T08:26:28.810Z,46.57
2022-07-29T08:28:55.964Z,45.88
2022-07-29T08:31:23.008Z,44.92
2022-07-29T08:34:00.768Z,44.72
2022-07-29T08:36:30.045Z,43.78
2022-07-29T08:38:57.000Z,42.86
2022-07-29T08:41:24.239Z,41.82
2022-07-29T08:43:52.799Z,41.81
2022-07-29T08:46:21.579Z,42.22
2022-07-29T08:48:49.363Z,40.93
2022-07-29T08:51:23.886Z,40.44
2022-07-29T08:53:51.821Z,39.25
2022-07-29T08:56:22.247Z,38.73
2022-07-29T08:58:51.867Z,39.20
2022-07-29T09:01:36.367Z,39.35
2022-07-29T09:04:13.687Z,38.86
2022-07-29T09:06:46.381Z,39.40
2022-07-29T09:09:14.743Z,38.24
2022-07-29T09:11:47.905Z,37.51
2022-07-29T09:14:15.257Z,37.72
2022-07-29T09:16:54.537Z,37.36
2022-07-29T09:19:26.352Z,37.59
2022-07-29T09:22:01.171Z,36.34
2022-07-29T09:24:38.443Z,36.21
2022-07-29T09:27:26.797Z,35.20
2022-07-29T09:30:08.735Z,34.46
2022-07-29T09:32:59.468Z,33.95
2022-07-29T09:35:28.001Z,32.84
2022-07-29T09:37:55.301Z,34.29
2022-07-29T09:40:28.448Z,34.01
2022-07-29T09:43:01.670Z,34.56
2022-07-29T09:45:33.581Z,33.81
2022-07-29T09:48:33.904Z,34.46
2022-07-29T09:51:02.748Z,33.37
2022-07-29T09:53:38.941Z,33.73
2022-07-29T09:56:11.645Z,33.28
2022-07-29T09:58:41.571Z,33.59
2022-07-29T10:01:08.509Z,33.32
2022-07-29T10:03:53.081Z,33.12
2022-07-29T10:06:20.058Z,33.31
2022-07-29T10:08:50.557Z,33.69
2022-07-29T10:11:21.062Z,32.30
2022-07-29T10:13:49.874Z,33.57
2022-07-29T10:16:17.837Z,32.73
2022-07-29T10:18:45.687Z,32.42
2022-07-29T10:21:22.596Z,32.74
2022-07-29T10:24:02.830Z,31.26
2022-07-29T10:26:31.362Z,30.58
2022-07-29T10:29:01.352Z,31.95
2022-07-29T10:31:44.902Z,31.33
2022-07-29T10:35:05.378Z,30.59
2022-07-29T10:38:05.356Z,30.08
2022-07-29T10:41:32.262Z,29.76
2022-07-29T10:44:08.405Z,30.58
2022-07-29T10:46:41.379Z,29.71
2022-07-29T10:49:24.866Z,30.11
2022-07-29T10:52:00.996Z,30.20
2022-07-29T10:54:37.167Z,29.43
2022-07-29T10:57:53.751Z,29.09
2022-07-29T11:00:16.836Z,28.52
2022-07-29T11:03:04.696Z,28.98
2022-07-29T11:06:09.761Z,27.85
2022-07-29T11:08:37.008Z,27.84
2022-07-29T11:11:22.424Z,27.85
2022-07-29T11:13:59.011Z,28.61
2022-07-29T11:16:59.448Z,28.74
2022-07-29T11:19:31.996Z,28.14
2022-07-29T11:22:00.069Z,27.98
2022-07-29T11:24:35.509Z,28.45
2022-07-29T11:27:13.230Z,27.70
2022-07-29T11:30:01.118Z,28.92
2022-07-29T11:32:44.618Z,28.98
2022-07-29T11:35:37.396Z,29.07
2022-07-29T11:38:31.648Z,28.33
2022-07-29T11:41:31.749Z,28.45
2022-07-29T11:44:01.401Z,28.38
2022-07-29T11:46:51.307Z,28.12
2022-07-29T11:49:32.127Z,28.61
2022-07-29T11:52:04.849Z,27.60
2022-07-29T11:57:36.396Z,27.71
2022-07-29T12:00:12.571Z,26.98
2022-07-29T12:02:48.721Z,27.17
2022-07-29T12:05:23.956Z,26.73
2022-07-29T12:08:22.920Z,26.49
2022-07-29T12:10:53.649Z,27.01
2022-07-29T12:13:23.022Z,27.98
2022-07-29T12:16:05.545Z,27.09
2022-07-29T12:18:35.332Z,27.25
2022-07-29T12:21:04.748Z,27.03
2022-07-29T12:23:37.751Z,27.59
2022-07-29T12:26:11.084Z,27.13
2022-07-29T12:28:51.997Z,25.89
2022-07-29T12:31:42.442Z,25.84
2022-07-29T12:34:16.623Z,25.41
2022-07-29T12:36:44.297Z,25.26
2022-07-29T12:39:13.902Z,25.16
2022-07-29T12:41:45.712Z,24.70
2022-07-29T12:44:15.373Z,24.59
2022-07-29T12:46:47.458Z,24.63
2022-07-29T12:49:25.506Z,24.81
2022-07-29T12:51:52.399Z,24.94
2022-07-29T12:54:21.776Z,24.86
2022-07-29T12:57:00.711Z,23.99
2022-07-29T12:59:32.157Z,24.22
2022-07-29T13:02:01.054Z,24.91
2022-07-29T13:04:37.518Z,24.80
2022-07-29T13:07:08.284Z,24.74
2022-07-29T13:09:42.870Z,25.24
2022-07-29T13:12:14.755Z,25.62
2022-07-29T13:14:42.355Z,25.46
2022-07-29T13:17:14.133Z,25.47
2022-07-29T13:19:43.252Z,25.12
2022-07-29T13:22:25.065Z,25.43
2022-07-29T13:25:00.266Z,24.63
2022-07-29T13:27:33.787Z,24.53
2022-07-29T13:30:04.847Z,25.91
2022-07-29T13:32:35.361Z,25.58
2022-07-29T13:35:06.401Z,25.09
2022-07-29T13:37:39.467Z,24.08
2022-07-29T13:40:11.633Z,23.96
2022-07-29T13:42:38.872Z,23.49
2022-07-29T13:45:07.729Z,22.88
2022-07-29T13:47:34.753Z,23.49
2022-07-29T13:50:05.373Z,23.59
2022-07-29T13:52:34.502Z,23.90
2022-07-29T13:55:04.953Z,23.01
2022-07-29T13:57:31.870Z,23.86
2022-07-29T13:59:58.917Z,23.85
2022-07-29T14:02:26.314Z,23.74
2022-07-29T14:04:55.252Z,23.58
2022-07-29T14:07:23.585Z,24.22
2022-07-29T14:09:51.084Z,24.33
2022-07-29T14:12:18.516Z,24.32
2022-07-29T14:14:47.255Z,24.73
2022-07-29T14:17:17.878Z,25.11
2022-07-29T14:19:44.876Z,25.53
2022-07-29T14:22:19.870Z,25.29
2022-07-29T14:24:49.951Z,25.82
2022-07-29T14:27:19.957Z,25.40
2022-07-29T14:30:06.387Z,25.20
2022-07-29T14:32:36.951Z,25.13
2022-07-29T14:35:05.152Z,25.13
2022-07-29T14:37:40.077Z,24.59
2022-07-29T14:40:09.109Z,25.26
2022-07-29T14:42:37.237Z,24.43
2022-07-29T14:45:06.525Z,24.16
2022-07-29T14:47:35.665Z,24.01
2022-07-29T14:50:11.779Z,24.46
2022-07-29T14:52:39.178Z,24.37
2022-07-29T14:55:19.967Z,24.17
2022-07-29T14:57:47.802Z,24.13
2022-07-29T15:00:15.720Z,23.64
2022-07-29T15:03:00.944Z,23.61
2022-07-29T15:05:29.397Z,23.83
2022-07-29T15:07:59.727Z,23.70
2022-07-29T15:10:31.218Z,23.22
2022-07-29T15:12:58.458Z,23.42
2022-07-29T15:15:25.759Z,22.96
2022-07-29T15:17:57.301Z,23.22
2022-07-29T15:20:26.772Z,22.97
2022-07-29T15:22:56.390Z,23.41
2022-07-29T15:25:25.294Z,23.83
2022-07-29T15:27:53.961Z,24.02
2022-07-29T15:30:32.622Z,24.38
2022-07-29T15:33:06.182Z,24.89
2022-07-29T15:35:33.529Z,24.86
2022-07-29T15:38:08.149Z,24.67
2022-07-29T15:40:42.132Z,24.70
2022-07-29T15:43:09.107Z,24.66
2022-07-29T15:45:42.024Z,24.56
2022-07-29T15:48:14.661Z,24.37
2022-07-29T15:50:41.921Z,23.83
2022-07-29T15:53:11.272Z,23.89
2022-07-29T15:55:38.247Z,24.97
2022-07-29T15:58:05.096Z,23.56
2022-07-29T16:00:31.949Z,23.72
2022-07-29T16:02:59.039Z,24.20
2022-07-29T16:05:26.235Z,23.89
2022-07-29T16:07:53.298Z,25.03
2022-07-29T16:10:22.679Z,29.28
2022-07-29T16:12:49.644Z,31.25
2022-07-29T16:15:16.580Z,32.42
2022-07-29T16:17:43.619Z,34.29
2022-07-29T16:20:15.591Z,35.36
2022-07-29T16:22:42.935Z,34.96
2022-07-29T16:25:15.189Z,34.36
2022-07-29T16:27:42.096Z,35.02
2022-07-29T16:30:12.527Z,35.36
2022-07-29T16:32:41.964Z,35.21
2022-07-29T16:35:09.953Z,35.48
2022-07-29T16:37:39.480Z,34.90
2022-07-29T16:40:11.690Z,35.42
2022-07-29T16:42:47.470Z,35.79
2022-07-29T16:45:16.736Z,35.82
2022-07-29T16:47:49.910Z,35.86
2022-07-29T16:50:17.942Z,36.97
2022-07-29T16:52:49.307Z,36.49
2022-07-29T16:55:21.206Z,36.83
2022-07-29T16:57:50.613Z,37.27
2022-07-29T17:00:21.058Z,37.64
2022-07-29T17:02:53.126Z,38.51
2022-07-29T17:05:24.698Z,38.67
2022-07-29T17:07:57.456Z,38.52
2022-07-29T17:10:26.551Z,38.47
2022-07-29T17:12:54.726Z,39.55
2022-07-29T17:15:21.597Z,39.51
2022-07-29T17:17:56.790Z,41.11
2022-07-29T17:20:24.416Z,42.08
2022-07-29T17:22:51.356Z,42.42
2022-07-29T17:25:20.855Z,42.94
2022-07-29T17:27:50.705Z,42.87
2022-07-29T17:30:18.607Z,43.04
2022-07-29T17:32:48.268Z,43.44
2022-07-29T17:35:33.566Z,43.73
2022-07-29T17:38:00.599Z,44.12
2022-07-29T17:40:27.444Z,44.48
2022-07-29T17:42:56.814Z,44.52
2022-07-29T17:45:49.935Z,44.90
2022-07-29T17:48:18.748Z,44.44
2022-07-29T17:50:47.183Z,44.37
2022-07-29T17:53:15.820Z,44.76
2022-07-29T17:55:45.760Z,44.73
2022-07-29T17:58:15.997Z,44.94
2022-07-29T18:00:43.967Z,45.58
2022-07-29T18:03:13.331Z,46.07
2022-07-29T18:05:40.611Z,46.21
2022-07-29T18:08:07.813Z,46.23
2022-07-29T18:10:35.272Z,46.75
2022-07-29T18:13:04.976Z,47.57
2022-07-29T18:15:34.895Z,47.60
2022-07-29T18:18:01.902Z,47.82
2022-07-29T18:20:32.354Z,48.06
2022-07-29T18:22:59.847Z,48.52
2022-07-29T18:25:29.663Z,49.30
2022-07-29T18:28:00.353Z,49.54
2022-07-29T18:30:29.399Z,49.24
2022-07-29T18:36:10.855Z,49.97
2022-07-29T18:38:41.142Z,50.16
2022-07-29T18:41:08.296Z,50.41
2022-07-29T18:43:36.403Z,50.64
2022-07-29T18:46:05.280Z,50.75
2022-07-29T18:48:34.922Z,51.67
2022-07-29T18:51:09.464Z,52.12
2022-07-29T18:53:37.257Z,52.11
2022-07-29T18:56:07.179Z,52.76
2022-07-29T18:58:38.322Z,53.09
2022-07-29T19:01:07.955Z,53.00
2022-07-29T19:03:37.504Z,53.22
2022-07-29T19:06:05.596Z,54.02
2022-07-29T19:08:36.259Z,53.47
2022-07-29T19:11:05.761Z,54.37
2022-07-29T19:13:36.960Z,54.39
2022-07-29T19:16:04.131Z,54.85
2022-07-29T19:18:35.560Z,54.58
2022-07-29T19:21:02.476Z,54.15
2022-07-29T19:23:29.421Z,54.45
2022-07-29T19:25:57.172Z,54.94
2022-07-29T19:28:24.234Z,55.21
2022-07-29T19:30:53.647Z,55.90
2022-07-29T19:33:23.086Z,55.70
2022-07-29T19:35:54.608Z,55.82
2022-07-29T19:38:24.179Z,56.02
2022-07-29T19:40:51.811Z,55.90
2022-07-29T19:43:49.780Z,56.28
2022-07-29T19:46:05.850Z,56.62
2022-07-29T19:48:32.844Z,57.18
2022-07-29T19:51:04.309Z,57.21
2022-07-29T19:53:31.392Z,57.22
2022-07-29T19:55:59.421Z,57.65
2022-07-29T19:58:26.933Z,57.63
2022-07-29T20:00:54.328Z,58.57
2022-07-29T20:03:26.060Z,59.02
2022-07-29T20:05:55.321Z,58.51
2022-07-29T20:08:26.704Z,59.37
2022-07-29T20:10:58.148Z,58.85
2022-07-29T20:13:27.335Z,58.63
2022-07-29T20:15:54.312Z,58.70
2022-07-29T20:18:27.025Z,59.22
2022-07-29T20:20:57.707Z,59.07
2022-07-29T20:23:27.149Z,59.96
2022-07-29T20:25:54.568Z,60.34
2022-07-29T20:28:26.660Z,60.42
2022-07-29T20:30:53.644Z,60.51
2022-07-29T20:33:22.969Z,60.54
2022-07-29T20:35:49.837Z,60.92
2022-07-29T20:38:18.449Z,61.10
2022-07-29T20:40:46.022Z,60.89
2022-07-29T20:43:12.955Z,61.08
2022-07-29T20:45:40.358Z,61.82
2022-07-29T20:48:08.320Z,61.41
2022-07-29T20:50:40.013Z,61.69
2022-07-29T20:53:06.915Z,61.72
2022-07-29T20:55:37.279Z,61.89
2022-07-29T20:58:04.624Z,61.71
2022-07-29T21:00:33.910Z,61.96
2022-07-29T21:03:00.811Z,62.42
2022-07-29T21:05:32.767Z,61.91
2022-07-29T21:07:59.716Z,61.76
2022-07-29T21:10:29.501Z,61.56
2022-07-29T21:12:56.506Z,61.69
2022-07-29T21:15:23.926Z,60.91
2022-07-29T21:18:06.130Z,61.77
2022-07-29T21:20:35.195Z,61.55
2022-07-29T21:23:05.144Z,61.45
2022-07-29T21:25:34.328Z,61.68
2022-07-29T21:28:19.395Z,61.50
2022-07-29T21:30:48.495Z,61.34
2022-07-29T21:33:15.386Z,61.01
2022-07-29T21:36:06.535Z,60.77
2022-07-29T21:38:29.859Z,60.74
2022-07-29T21:40:57.392Z,61.44
2022-07-29T21:43:28.873Z,60.50
2022-07-29T21:45:57.458Z,60.71
2022-07-29T21:48:26.744Z,60.64
2022-07-29T21:50:56.730Z,60.43
2022-07-29T21:53:26.890Z,60.21
2022-07-29T21:55:56.854Z,59.98
2022-07-29T21:58:26.866Z,60.48
2022-07-29T22:00:54.142Z,60.32
2022-07-29T22:03:21.183Z,60.39
2022-07-29T22:05:51.115Z,60.16
2022-07-29T22:08:20.279Z,59.83
2022-07-29T22:10:47.152Z,59.87
2022-07-29T22:13:16.610Z,59.90
2022-07-29T22:15:47.042Z,59.60
2022-07-29T22:18:20.693Z,60.13
2022-07-29T22:20:51.477Z,59.89
2022-07-29T22:23:22.938Z,60.04
2022-07-29T22:25:50.027Z,60.16
2022-07-29T22:28:19.189Z,59.57
2022-07-29T22:30:48.595Z,59.54
2022-07-29T22:33:18.296Z,59.50
2022-07-29T22:35:49.024Z,59.74
2022-07-29T22:38:17.875Z,59.78
2022-07-29T22:40:48.559Z,59.47
2022-07-29T22:43:18.711Z,60.27
2022-07-29T22:45:45.691Z,59.97
2022-07-29T22:48:12.715Z,59.96
2022-07-29T22:50:39.818Z,59.75
2022-07-29T22:53:06.972Z,59.89
2022-07-29T22:55:36.471Z,59.71
2022-07-29T22:58:03.414Z,59.27
2022-07-29T23:00:30.313Z,59.11
2022-07-29T23:02:57.242Z,59.24
2022-07-29T23:05:24.076Z,59.06
2022-07-29T23:07:53.109Z,59.07
2022-07-29T23:10:20.601Z,58.78
2022-07-29T23:12:47.494Z,58.78
2022-07-29T23:15:17.592Z,59.02
2022-07-29T23:17:45.217Z,58.85
2022-07-29T23:20:15.005Z,58.88
2022-07-29T23:22:42.402Z,58.57
2022-07-29T23:25:09.464Z,58.32
2022-07-29T23:27:36.616Z,58.92
2022-07-29T23:30:06.720Z,58.94
2022-07-29T23:32:33.595Z,58.23
2022-07-29T23:35:01.037Z,58.13
2022-07-29T23:37:31.062Z,57.77
2022-07-29T23:40:03.254Z,58.44
2022-07-29T23:42:32.827Z,58.23
2022-07-29T23:44:59.827Z,58.01
2022-07-29T23:47:27.036Z,58.06
2022-07-29T23:49:54.505Z,58.58
2022-07-29T23:52:21.517Z,58.39
2022-07-29T23:54:48.479Z,58.02
2022-07-29T23:57:15.364Z,58.55
2022-07-29T23:59:42.255Z,58.36
